createdAt,value
2018-03-27T00:02:35.050Z,80.33
2018-03-27T00:17:40.417Z,80.13
2018-03-27T00:32:46.175Z,79.42
2018-03-27T00:47:35.295Z,78.96
2018-03-27T01:02:36.648Z,78.73
2018-03-27T01:17:36.582Z,79.25
2018-03-27T01:32:37.527Z,79.58
2018-03-27T02:02:36.401Z,79.11
2018-03-27T02:17:44.294Z,78.86
2018-03-27T02:32:36.688Z,78.78
2018-03-27T02:47:42.707Z,78.71
2018-03-27T03:02:35.602Z,78.44
2018-03-27T03:17:35.112Z,78.43
2018-03-27T03:32:34.959Z,79.18
2018-03-27T04:02:34.782Z,78.91
2018-03-27T04:17:34.220Z,78.89
2018-03-27T04:32:34.113Z,78.89
2018-03-27T04:47:33.636Z,78.40
2018-03-27T05:17:34.850Z,78.09
2018-03-27T05:47:34.788Z,77.84
2018-03-27T06:02:35.821Z,77.54
2018-03-27T06:32:34.565Z,76.30
2018-03-27T06:47:38.186Z,75.69
2018-03-27T07:02:35.453Z,74.83
2018-03-27T07:17:34.958Z,74.14
2018-03-27T07:32:36.262Z,73.62
2018-03-27T07:47:35.685Z,73.99
2018-03-27T08:17:35.040Z,75.18
2018-03-27T08:32:35.453Z,76.23
2018-03-27T09:02:34.871Z,74.09
2018-03-27T09:17:38.705Z,73.04
2018-03-27T09:47:37.062Z,67.41
2018-03-27T10:02:36.995Z,63.17
2018-03-27T10:17:35.464Z,61.34
2018-03-27T10:32:35.308Z,57.62
2018-03-27T11:17:34.627Z,58.03
2018-03-27T11:32:33.548Z,59.20
2018-03-27T12:02:33.971Z,59.00
2018-03-27T12:32:37.737Z,57.87
2018-03-27T12:47:36.621Z,58.33
2018-03-27T13:02:34.663Z,59.38
2018-03-27T13:17:34.989Z,59.55
2018-03-27T13:32:34.885Z,59.54
2018-03-27T14:02:34.811Z,61.91
2018-03-27T14:32:35.093Z,62.19
2018-03-27T14:47:35.040Z,61.97
2018-03-27T15:32:35.884Z,62.27
2018-03-27T16:02:35.702Z,63.06
2018-03-27T16:32:35.020Z,64.45
2018-03-27T16:47:34.536Z,64.42
2018-03-27T17:02:36.547Z,65.31
2018-03-27T17:17:37.949Z,66.14
2018-03-27T17:32:37.889Z,65.54
2018-03-27T17:47:34.860Z,66.56
2018-03-27T18:02:41.727Z,66.88
2018-03-27T18:32:52.179Z,67.18
2018-03-27T18:47:37.778Z,66.45
2018-03-27T19:02:36.747Z,65.29
2018-03-27T19:17:37.312Z,63.78
2018-03-27T19:32:36.209Z,62.89
2018-03-27T19:47:42.513Z,62.45
2018-03-27T20:02:35.146Z,61.96
2018-03-27T20:17:34.528Z,61.98
2018-03-27T20:32:38.719Z,61.96
2018-03-27T20:47:36.851Z,61.29
2018-03-27T21:02:35.754Z,61.02
2018-03-27T21:17:36.723Z,60.54
2018-03-27T21:32:34.607Z,59.84
2018-03-27T21:47:37.569Z,59.63
2018-03-27T22:02:34.528Z,59.11
2018-03-27T22:17:34.908Z,58.90
2018-03-27T22:32:36.374Z,58.56
2018-03-27T22:47:34.780Z,59.03
2018-03-27T23:02:34.691Z,61.67
2018-03-27T23:17:35.058Z,63.47
2018-03-27T23:32:34.599Z,64.20
2018-03-27T23:47:34.978Z,65.00
